100LL.CA
Aviation Fuel Pricing for Canadians
Please upgrade your browser - Tested with IE9, FireFox, Chrome, Safari

Fuel Airports Other Help
Prices Economy Info List METAR/TAF Kneeboard Help

Reference Airport: KITCHENER/WATERLOO, ON
N 43 27 38.7788  W 080 22 43.3636
Provinces to show:

CYKF KITCHENER/WATERLOO, ON
WEATHER
METARCYKF 230400Z AUTO 36002KT 9SM FEW240 M02/M03 A2957 RMK SLP025
TAFTAF CYKF 230140Z 2302/2314 VRB03KT P6SM BKN200 PROB30 2304/2313 1/2SM FZFG VV002 FM231300 24008KT P6SM FEW004 RMK FCST BASED ON AUTO OBS. NXT FCST BY 230800Z
OTHER SITES

FlightAware

FltPlan

Google Maps

SkyVector
FUEL
FBO 100LL
member
100LL
public
JETA MOGAS
Flite Line Services (2022-06-08)2.8302.590
Summit Fuel Services (2023-09-20)3.150
Chartright (2022-06-14)2.400
Canada Flight Supplement - CYKF
(opens in new tab/window)


Please Send Updates!

Desktop Version ]  [ Mobile Version ]  [ Disclaimer ]